sensor_id;sensor_type;location;lat;lon;timestamp;temperature;humidity
48589;DHT22;34369;51.174;6.738;2022-12-01T00:02:07;6.70;91.70
48589;DHT22;34369;51.174;6.738;2022-12-01T00:04:39;6.70;91.70
48589;DHT22;34369;51.174;6.738;2022-12-01T00:07:11;6.70;91.70
48589;DHT22;34369;51.174;6.738;2022-12-01T00:09:43;6.80;91.70
48589;DHT22;34369;51.174;6.738;2022-12-01T00:12:38;6.70;91.60
48589;DHT22;34369;51.174;6.738;2022-12-01T00:15:14;6.80;91.70
48589;DHT22;34369;51.174;6.738;2022-12-01T00:17:46;6.80;91.70
48589;DHT22;34369;51.174;6.738;2022-12-01T00:20:18;6.70;91.70
48589;DHT22;34369;51.174;6.738;2022-12-01T00:22:50;6.70;91.70
48589;DHT22;34369;51.174;6.738;2022-12-01T00:25:22;6.70;91.70
48589;DHT22;34369;51.174;6.738;2022-12-01T00:30:32;6.70;91.70
48589;DHT22;34369;51.174;6.738;2022-12-01T00:33:04;6.70;91.80
48589;DHT22;34369;51.174;6.738;2022-12-01T00:35:36;6.70;91.70
48589;DHT22;34369;51.174;6.738;2022-12-01T00:38:08;6.70;91.70
48589;DHT22;34369;51.174;6.738;2022-12-01T00:43:12;6.70;91.70
48589;DHT22;34369;51.174;6.738;2022-12-01T00:45:46;6.70;91.60
48589;DHT22;34369;51.174;6.738;2022-12-01T00:48:18;6.70;91.70
48589;DHT22;34369;51.174;6.738;2022-12-01T00:50:51;6.70;91.60
48589;DHT22;34369;51.174;6.738;2022-12-01T00:55:57;6.70;91.60
48589;DHT22;34369;51.174;6.738;2022-12-01T00:58:29;6.60;91.70
48589;DHT22;34369;51.174;6.738;2022-12-01T01:01:03;6.70;91.70
48589;DHT22;34369;51.174;6.738;2022-12-01T01:03:35;6.70;91.70
48589;DHT22;34369;51.174;6.738;2022-12-01T01:06:08;6.70;91.50
48589;DHT22;34369;51.174;6.738;2022-12-01T01:11:13;6.70;91.60
48589;DHT22;34369;51.174;6.738;2022-12-01T01:16:21;6.60;91.60
48589;DHT22;34369;51.174;6.738;2022-12-01T01:18:53;6.40;91.60
48589;DHT22;34369;51.174;6.738;2022-12-01T01:21:27;6.60;91.60
48589;DHT22;34369;51.174;6.738;2022-12-01T01:23:59;6.70;91.60
48589;DHT22;34369;51.174;6.738;2022-12-01T01:26:34;6.70;91.70
48589;DHT22;34369;51.174;6.738;2022-12-01T01:31:40;6.70;91.60
48589;DHT22;34369;51.174;6.738;2022-12-01T01:34:12;6.60;91.60
48589;DHT22;34369;51.174;6.738;2022-12-01T01:36:44;6.70;91.60
48589;DHT22;34369;51.174;6.738;2022-12-01T01:39:16;6.60;91.80
48589;DHT22;34369;51.174;6.738;2022-12-01T01:41:47;6.60;91.70
48589;DHT22;34369;51.174;6.738;2022-12-01T01:44:44;6.60;91.80
48589;DHT22;34369;51.174;6.738;2022-12-01T01:47:24;6.70;91.70
48589;DHT22;34369;51.174;6.738;2022-12-01T01:50:01;6.70;91.80
48589;DHT22;34369;51.174;6.738;2022-12-01T01:52:37;6.60;91.90
48589;DHT22;34369;51.174;6.738;2022-12-01T01:55:12;6.60;91.90
48589;DHT22;34369;51.174;6.738;2022-12-01T01:57:45;6.70;91.80
48589;DHT22;34369;51.174;6.738;2022-12-01T02:00:18;6.40;91.80
48589;DHT22;34369;51.174;6.738;2022-12-01T02:02:52;6.60;92.00
48589;DHT22;34369;51.174;6.738;2022-12-01T02:05:26;6.70;92.00
48589;DHT22;34369;51.174;6.738;2022-12-01T02:08:02;6.70;92.00
48589;DHT22;34369;51.174;6.738;2022-12-01T02:10:52;6.60;91.90
48589;DHT22;34369;51.174;6.738;2022-12-01T02:13:41;6.70;92.00
48589;DHT22;34369;51.174;6.738;2022-12-01T02:16:20;6.60;92.00
48589;DHT22;34369;51.174;6.738;2022-12-01T02:19:10;6.60;92.00
48589;DHT22;34369;51.174;6.738;2022-12-01T02:22:01;6.60;92.00
48589;DHT22;34369;51.174;6.738;2022-12-01T02:25:15;6.60;92.00
48589;DHT22;34369;51.174;6.738;2022-12-01T02:31:02;6.60;92.10
48589;DHT22;34369;51.174;6.738;2022-12-01T02:33:38;6.50;92.10
48589;DHT22;34369;51.174;6.738;2022-12-01T02:36:15;6.60;92.10
48589;DHT22;34369;51.174;6.738;2022-12-01T02:38:53;6.50;92.20
48589;DHT22;34369;51.174;6.738;2022-12-01T02:41:30;6.60;92.10
48589;DHT22;34369;51.174;6.738;2022-12-01T02:44:09;6.60;92.30
48589;DHT22;34369;51.174;6.738;2022-12-01T02:46:46;6.60;92.20
48589;DHT22;34369;51.174;6.738;2022-12-01T02:49:25;6.50;92.10
48589;DHT22;34369;51.174;6.738;2022-12-01T02:51:58;6.60;92.30
48589;DHT22;34369;51.174;6.738;2022-12-01T02:54:32;6.60;92.10
48589;DHT22;34369;51.174;6.738;2022-12-01T02:59:39;6.60;92.10
48589;DHT22;34369;51.174;6.738;2022-12-01T03:02:21;6.60;92.20
48589;DHT22;34369;51.174;6.738;2022-12-01T03:05:02;6.50;92.20
48589;DHT22;34369;51.174;6.738;2022-12-01T03:07:44;6.50;92.20
48589;DHT22;34369;51.174;6.738;2022-12-01T03:10:26;6.40;92.30
48589;DHT22;34369;51.174;6.738;2022-12-01T03:13:08;6.50;92.40
48589;DHT22;34369;51.174;6.738;2022-12-01T03:15:54;6.50;92.30
48589;DHT22;34369;51.174;6.738;2022-12-01T03:18:34;6.60;92.50
48589;DHT22;34369;51.174;6.738;2022-12-01T03:21:13;6.60;92.40
48589;DHT22;34369;51.174;6.738;2022-12-01T03:23:51;6.50;92.40
48589;DHT22;34369;51.174;6.738;2022-12-01T03:26:28;6.50;92.50
48589;DHT22;34369;51.174;6.738;2022-12-01T03:29:05;6.50;92.50
48589;DHT22;34369;51.174;6.738;2022-12-01T03:31:43;6.50;92.30
48589;DHT22;34369;51.174;6.738;2022-12-01T03:34:23;6.50;92.40
48589;DHT22;34369;51.174;6.738;2022-12-01T03:37:01;5.60;92.20
48589;DHT22;34369;51.174;6.738;2022-12-01T03:39:37;6.50;92.50
48589;DHT22;34369;51.174;6.738;2022-12-01T03:42:15;6.40;92.40
48589;DHT22;34369;51.174;6.738;2022-12-01T03:44:53;6.50;92.60
48589;DHT22;34369;51.174;6.738;2022-12-01T03:47:29;6.50;92.60
48589;DHT22;34369;51.174;6.738;2022-12-01T03:50:07;6.50;92.50
48589;DHT22;34369;51.174;6.738;2022-12-01T03:52:46;6.50;92.60
48589;DHT22;34369;51.174;6.738;2022-12-01T03:55:25;6.50;92.60
48589;DHT22;34369;51.174;6.738;2022-12-01T03:58:01;6.50;92.70
48589;DHT22;34369;51.174;6.738;2022-12-01T04:00:37;6.50;92.70
48589;DHT22;34369;51.174;6.738;2022-12-01T04:03:16;6.50;92.60
48589;DHT22;34369;51.174;6.738;2022-12-01T04:05:51;6.40;92.50
48589;DHT22;34369;51.174;6.738;2022-12-01T04:08:23;6.30;92.50
48589;DHT22;34369;51.174;6.738;2022-12-01T04:15:58;6.40;92.70
48589;DHT22;34369;51.174;6.738;2022-12-01T04:18:30;6.40;92.70
48589;DHT22;34369;51.174;6.738;2022-12-01T04:21:04;6.50;92.70
48589;DHT22;34369;51.174;6.738;2022-12-01T04:23:36;6.50;92.50
48589;DHT22;34369;51.174;6.738;2022-12-01T04:26:25;6.40;92.60
48589;DHT22;34369;51.174;6.738;2022-12-01T04:28:58;6.50;92.60
48589;DHT22;34369;51.174;6.738;2022-12-01T04:31:30;6.40;92.50
48589;DHT22;34369;51.174;6.738;2022-12-01T04:34:02;6.40;92.40
48589;DHT22;34369;51.174;6.738;2022-12-01T04:36:36;6.50;92.40
48589;DHT22;34369;51.174;6.738;2022-12-01T04:39:09;6.40;92.30
48589;DHT22;34369;51.174;6.738;2022-12-01T04:44:13;6.50;92.20
48589;DHT22;34369;51.174;6.738;2022-12-01T04:46:45;6.30;92.20
48589;DHT22;34369;51.174;6.738;2022-12-01T04:49:17;6.40;92.20
48589;DHT22;34369;51.174;6.738;2022-12-01T04:51:51;6.40;92.00
48589;DHT22;34369;51.174;6.738;2022-12-01T04:54:23;6.30;92.10
48589;DHT22;34369;51.174;6.738;2022-12-01T04:56:55;6.40;92.10
48589;DHT22;34369;51.174;6.738;2022-12-01T04:59:27;6.30;92.10
48589;DHT22;34369;51.174;6.738;2022-12-01T05:01:59;6.40;92.00
48589;DHT22;34369;51.174;6.738;2022-12-01T05:07:09;6.40;91.90
48589;DHT22;34369;51.174;6.738;2022-12-01T05:12:13;6.30;91.80
48589;DHT22;34369;51.174;6.738;2022-12-01T05:14:46;6.30;91.80
48589;DHT22;34369;51.174;6.738;2022-12-01T05:17:18;6.40;91.80
48589;DHT22;34369;51.174;6.738;2022-12-01T05:19:50;6.40;91.70
48589;DHT22;34369;51.174;6.738;2022-12-01T05:22:41;6.40;91.60
48589;DHT22;34369;51.174;6.738;2022-12-01T05:25:13;6.30;91.60
48589;DHT22;34369;51.174;6.738;2022-12-01T05:27:45;6.40;91.60
48589;DHT22;34369;51.174;6.738;2022-12-01T05:30:17;6.40;91.50
48589;DHT22;34369;51.174;6.738;2022-12-01T05:32:49;6.40;91.60
48589;DHT22;34369;51.174;6.738;2022-12-01T05:35:21;6.40;91.60
48589;DHT22;34369;51.174;6.738;2022-12-01T05:37:55;6.40;91.50
48589;DHT22;34369;51.174;6.738;2022-12-01T05:40:26;6.40;91.50
48589;DHT22;34369;51.174;6.738;2022-12-01T05:45:32;6.50;91.40
48589;DHT22;34369;51.174;6.738;2022-12-01T05:48:04;6.40;91.30
48589;DHT22;34369;51.174;6.738;2022-12-01T05:50:37;6.30;91.30
48589;DHT22;34369;51.174;6.738;2022-12-01T05:53:15;6.30;91.30
48589;DHT22;34369;51.174;6.738;2022-12-01T05:55:50;6.30;91.30
48589;DHT22;34369;51.174;6.738;2022-12-01T05:58:23;6.40;91.30
48589;DHT22;34369;51.174;6.738;2022-12-01T06:00:55;6.40;91.20
48589;DHT22;34369;51.174;6.738;2022-12-01T06:05:59;6.30;91.20
48589;DHT22;34369;51.174;6.738;2022-12-01T06:08:33;6.40;91.20
48589;DHT22;34369;51.174;6.738;2022-12-01T06:11:05;6.30;91.10
48589;DHT22;34369;51.174;6.738;2022-12-01T06:13:37;6.30;91.10
48589;DHT22;34369;51.174;6.738;2022-12-01T06:18:42;6.30;91.20
48589;DHT22;34369;51.174;6.738;2022-12-01T06:21:14;6.40;91.20
48589;DHT22;34369;51.174;6.738;2022-12-01T06:23:47;6.40;91.20
48589;DHT22;34369;51.174;6.738;2022-12-01T06:26:19;6.40;91.20
48589;DHT22;34369;51.174;6.738;2022-12-01T06:28:51;6.30;91.20
48589;DHT22;34369;51.174;6.738;2022-12-01T06:31:23;6.40;91.20
48589;DHT22;34369;51.174;6.738;2022-12-01T06:33:56;6.30;91.20
48589;DHT22;34369;51.174;6.738;2022-12-01T06:36:28;6.40;91.20
48589;DHT22;34369;51.174;6.738;2022-12-01T06:39:04;6.40;91.20
48589;DHT22;34369;51.174;6.738;2022-12-01T06:41:38;6.40;91.10
48589;DHT22;34369;51.174;6.738;2022-12-01T06:44:10;6.30;91.20
48589;DHT22;34369;51.174;6.738;2022-12-01T06:46:42;6.30;91.20
48589;DHT22;34369;51.174;6.738;2022-12-01T06:49:14;6.30;91.20
48589;DHT22;34369;51.174;6.738;2022-12-01T06:51:46;6.40;91.30
48589;DHT22;34369;51.174;6.738;2022-12-01T06:54:19;6.30;91.30
48589;DHT22;34369;51.174;6.738;2022-12-01T06:56:52;6.40;91.40
48589;DHT22;34369;51.174;6.738;2022-12-01T06:59:24;6.30;91.30
48589;DHT22;34369;51.174;6.738;2022-12-01T07:01:56;6.50;91.40
48589;DHT22;34369;51.174;6.738;2022-12-01T07:04:29;6.50;91.50
48589;DHT22;34369;51.174;6.738;2022-12-01T07:07:03;6.40;91.50
48589;DHT22;34369;51.174;6.738;2022-12-01T07:09:37;6.30;91.30
48589;DHT22;34369;51.174;6.738;2022-12-01T07:12:10;6.40;91.40
48589;DHT22;34369;51.174;6.738;2022-12-01T07:14:45;6.40;91.30
48589;DHT22;34369;51.174;6.738;2022-12-01T07:17:17;6.40;91.30
48589;DHT22;34369;51.174;6.738;2022-12-01T07:19:49;6.40;91.30
48589;DHT22;34369;51.174;6.738;2022-12-01T07:22:22;6.40;91.20
48589;DHT22;34369;51.174;6.738;2022-12-01T07:24:59;6.30;91.30
48589;DHT22;34369;51.174;6.738;2022-12-01T07:27:31;6.40;91.20
48589;DHT22;34369;51.174;6.738;2022-12-01T07:30:04;6.40;91.40
48589;DHT22;34369;51.174;6.738;2022-12-01T07:32:39;6.50;91.10
48589;DHT22;34369;51.174;6.738;2022-12-01T07:35:11;6.40;91.20
48589;DHT22;34369;51.174;6.738;2022-12-01T07:37:44;6.40;91.10
48589;DHT22;34369;51.174;6.738;2022-12-01T07:40:18;6.50;91.00
48589;DHT22;34369;51.174;6.738;2022-12-01T07:42:51;6.40;91.10
48589;DHT22;34369;51.174;6.738;2022-12-01T07:45:23;6.40;91.00
48589;DHT22;34369;51.174;6.738;2022-12-01T07:47:56;6.40;91.10
48589;DHT22;34369;51.174;6.738;2022-12-01T07:50:28;6.30;91.10
48589;DHT22;34369;51.174;6.738;2022-12-01T07:53:02;6.40;91.10
48589;DHT22;34369;51.174;6.738;2022-12-01T07:55:36;6.40;91.10
48589;DHT22;34369;51.174;6.738;2022-12-01T07:58:08;6.30;91.00
48589;DHT22;34369;51.174;6.738;2022-12-01T08:00:41;6.40;91.00
48589;DHT22;34369;51.174;6.738;2022-12-01T08:03:18;6.40;91.10
48589;DHT22;34369;51.174;6.738;2022-12-01T08:05:56;6.40;91.10
48589;DHT22;34369;51.174;6.738;2022-12-01T08:08:30;6.40;91.10
48589;DHT22;34369;51.174;6.738;2022-12-01T08:11:06;6.40;90.90
48589;DHT22;34369;51.174;6.738;2022-12-01T08:16:16;6.30;91.00
48589;DHT22;34369;51.174;6.738;2022-12-01T08:21:23;6.40;91.10
48589;DHT22;34369;51.174;6.738;2022-12-01T08:23:57;6.40;91.20
48589;DHT22;34369;51.174;6.738;2022-12-01T08:26:31;6.80;91.20
48589;DHT22;34369;51.174;6.738;2022-12-01T08:41:53;6.40;91.00
48589;DHT22;34369;51.174;6.738;2022-12-01T08:52:03;6.50;91.10
48589;DHT22;34369;51.174;6.738;2022-12-01T08:57:11;6.50;91.00
48589;DHT22;34369;51.174;6.738;2022-12-01T09:10:02;6.50;90.90
48589;DHT22;34369;51.174;6.738;2022-12-01T09:12:38;6.60;90.90
48589;DHT22;34369;51.174;6.738;2022-12-01T09:15:11;6.60;91.00
48589;DHT22;34369;51.174;6.738;2022-12-01T09:25:23;6.70;90.80
48589;DHT22;34369;51.174;6.738;2022-12-01T09:27:57;6.70;90.80
48589;DHT22;34369;51.174;6.738;2022-12-01T09:35:35;6.70;90.70
48589;DHT22;34369;51.174;6.738;2022-12-01T09:38:08;6.70;90.80
48589;DHT22;34369;51.174;6.738;2022-12-01T09:40:42;6.70;90.70
48589;DHT22;34369;51.174;6.738;2022-12-01T09:43:21;6.60;90.70
48589;DHT22;34369;51.174;6.738;2022-12-01T09:46:00;6.70;90.70
48589;DHT22;34369;51.174;6.738;2022-12-01T09:48:45;6.70;90.70
48589;DHT22;34369;51.174;6.738;2022-12-01T09:51:21;6.70;90.70
48589;DHT22;34369;51.174;6.738;2022-12-01T10:04:35;6.70;90.80
48589;DHT22;34369;51.174;6.738;2022-12-01T10:14:53;6.80;90.90
48589;DHT22;34369;51.174;6.738;2022-12-01T10:18:26;6.80;91.00
48589;DHT22;34369;51.174;6.738;2022-12-01T10:25:21;6.90;90.80
48589;DHT22;34369;51.174;6.738;2022-12-01T10:28:43;6.80;91.00
48589;DHT22;34369;51.174;6.738;2022-12-01T10:35:42;6.90;90.80
48589;DHT22;34369;51.174;6.738;2022-12-01T10:38:33;7.00;90.70
48589;DHT22;34369;51.174;6.738;2022-12-01T10:41:42;6.90;90.70
48589;DHT22;34369;51.174;6.738;2022-12-01T10:52:43;7.00;90.40
48589;DHT22;34369;51.174;6.738;2022-12-01T11:03:20;6.90;90.50
48589;DHT22;34369;51.174;6.738;2022-12-01T11:06:37;6.90;90.50
48589;DHT22;34369;51.174;6.738;2022-12-01T11:09:20;6.90;90.50
48589;DHT22;34369;51.174;6.738;2022-12-01T11:12:09;6.90;90.60
48589;DHT22;34369;51.174;6.738;2022-12-01T11:15:50;6.90;90.70
48589;DHT22;34369;51.174;6.738;2022-12-01T11:26:22;6.90;90.70
48589;DHT22;34369;51.174;6.738;2022-12-01T11:49:21;6.80;90.60
48589;DHT22;34369;51.174;6.738;2022-12-01T12:16:17;6.80;90.10
48589;DHT22;34369;51.174;6.738;2022-12-01T12:22:47;6.90;89.80
48589;DHT22;34369;51.174;6.738;2022-12-01T12:26:13;6.80;89.90
48589;DHT22;34369;51.174;6.738;2022-12-01T12:51:13;7.00;87.70
48589;DHT22;34369;51.174;6.738;2022-12-01T12:53:51;7.30;87.10
48589;DHT22;34369;51.174;6.738;2022-12-01T12:56:29;7.10;87.10
48589;DHT22;34369;51.174;6.738;2022-12-01T12:59:07;7.10;87.20
48589;DHT22;34369;51.174;6.738;2022-12-01T13:01:52;7.10;86.80
48589;DHT22;34369;51.174;6.738;2022-12-01T13:04:36;7.20;86.80
48589;DHT22;34369;51.174;6.738;2022-12-01T13:07:27;7.20;87.10
48589;DHT22;34369;51.174;6.738;2022-12-01T13:10:09;4.40;85.30
48589;DHT22;34369;51.174;6.738;2022-12-01T13:12:56;7.20;86.80
48589;DHT22;34369;51.174;6.738;2022-12-01T13:15:33;7.30;86.40
48589;DHT22;34369;51.174;6.738;2022-12-01T13:18:17;7.30;86.00
48589;DHT22;34369;51.174;6.738;2022-12-01T13:20:57;7.40;85.90
48589;DHT22;34369;51.174;6.738;2022-12-01T13:23:30;7.40;86.00
48589;DHT22;34369;51.174;6.738;2022-12-01T13:26:07;7.30;85.70
48589;DHT22;34369;51.174;6.738;2022-12-01T13:28:46;7.50;85.40
48589;DHT22;34369;51.174;6.738;2022-12-01T13:33:57;7.50;84.20
48589;DHT22;34369;51.174;6.738;2022-12-01T13:36:32;8.50;85.50
48589;DHT22;34369;51.174;6.738;2022-12-01T13:39:13;7.50;84.00
48589;DHT22;34369;51.174;6.738;2022-12-01T13:42:06;7.50;84.00
48589;DHT22;34369;51.174;6.738;2022-12-01T13:44:43;7.50;83.70
48589;DHT22;34369;51.174;6.738;2022-12-01T13:47:37;7.40;83.70
48589;DHT22;34369;51.174;6.738;2022-12-01T13:50:38;7.50;83.80
48589;DHT22;34369;51.174;6.738;2022-12-01T13:53:32;7.50;83.20
48589;DHT22;34369;51.174;6.738;2022-12-01T13:56:33;7.50;82.90
48589;DHT22;34369;51.174;6.738;2022-12-01T13:59:38;7.40;82.40
48589;DHT22;34369;51.174;6.738;2022-12-01T14:02:18;7.40;82.30
48589;DHT22;34369;51.174;6.738;2022-12-01T14:07:34;7.40;82.20
48589;DHT22;34369;51.174;6.738;2022-12-01T14:13:02;7.30;82.30
48589;DHT22;34369;51.174;6.738;2022-12-01T14:15:38;7.40;82.40
48589;DHT22;34369;51.174;6.738;2022-12-01T14:18:18;7.30;82.80
48589;DHT22;34369;51.174;6.738;2022-12-01T14:20:58;7.40;82.40
48589;DHT22;34369;51.174;6.738;2022-12-01T14:23:35;7.30;82.20
48589;DHT22;34369;51.174;6.738;2022-12-01T14:26:15;4.20;80.60
48589;DHT22;34369;51.174;6.738;2022-12-01T14:32:21;7.20;82.10
48589;DHT22;34369;51.174;6.738;2022-12-01T14:34:58;7.10;82.30
48589;DHT22;34369;51.174;6.738;2022-12-01T14:37:42;7.10;82.10
48589;DHT22;34369;51.174;6.738;2022-12-01T14:40:26;7.10;82.20
48589;DHT22;34369;51.174;6.738;2022-12-01T14:43:05;7.10;82.50
48589;DHT22;34369;51.174;6.738;2022-12-01T14:46:05;7.20;82.00
48589;DHT22;34369;51.174;6.738;2022-12-01T14:48:53;7.20;81.80
48589;DHT22;34369;51.174;6.738;2022-12-01T14:51:28;7.00;81.80
48589;DHT22;34369;51.174;6.738;2022-12-01T14:57:17;6.90;82.10
48589;DHT22;34369;51.174;6.738;2022-12-01T15:00:06;7.00;82.00
48589;DHT22;34369;51.174;6.738;2022-12-01T15:02:46;6.90;82.00
48589;DHT22;34369;51.174;6.738;2022-12-01T15:05:22;6.90;82.30
48589;DHT22;34369;51.174;6.738;2022-12-01T15:07:59;6.90;81.90
48589;DHT22;34369;51.174;6.738;2022-12-01T15:10:49;6.90;82.00
48589;DHT22;34369;51.174;6.738;2022-12-01T15:13:26;6.90;82.10
48589;DHT22;34369;51.174;6.738;2022-12-01T15:16:03;6.80;82.00
48589;DHT22;34369;51.174;6.738;2022-12-01T15:21:15;6.70;82.30
48589;DHT22;34369;51.174;6.738;2022-12-01T15:23:54;6.70;82.50
48589;DHT22;34369;51.174;6.738;2022-12-01T15:26:30;6.70;82.30
48589;DHT22;34369;51.174;6.738;2022-12-01T15:29:17;6.60;82.40
48589;DHT22;34369;51.174;6.738;2022-12-01T15:31:54;6.60;82.20
48589;DHT22;34369;51.174;6.738;2022-12-01T15:34:31;6.70;82.80
48589;DHT22;34369;51.174;6.738;2022-12-01T15:37:11;6.60;82.20
48589;DHT22;34369;51.174;6.738;2022-12-01T15:39:48;7.30;82.80
48589;DHT22;34369;51.174;6.738;2022-12-01T15:42:27;6.50;82.30
48589;DHT22;34369;51.174;6.738;2022-12-01T15:45:15;6.50;82.50
48589;DHT22;34369;51.174;6.738;2022-12-01T15:47:51;6.50;82.80
48589;DHT22;34369;51.174;6.738;2022-12-01T15:50:27;6.50;83.00
48589;DHT22;34369;51.174;6.738;2022-12-01T15:53:04;6.40;82.80
48589;DHT22;34369;51.174;6.738;2022-12-01T15:55:50;6.40;82.80
48589;DHT22;34369;51.174;6.738;2022-12-01T15:58:25;6.40;82.80
48589;DHT22;34369;51.174;6.738;2022-12-01T16:01:03;6.40;83.00
48589;DHT22;34369;51.174;6.738;2022-12-01T16:03:52;6.40;82.90
48589;DHT22;34369;51.174;6.738;2022-12-01T16:06:32;6.40;83.10
48589;DHT22;34369;51.174;6.738;2022-12-01T16:09:18;6.40;83.10
48589;DHT22;34369;51.174;6.738;2022-12-01T16:12:17;6.40;83.30
48589;DHT22;34369;51.174;6.738;2022-12-01T16:14:55;6.40;83.60
48589;DHT22;34369;51.174;6.738;2022-12-01T16:17:42;6.40;83.40
48589;DHT22;34369;51.174;6.738;2022-12-01T16:20:23;6.40;83.30
48589;DHT22;34369;51.174;6.738;2022-12-01T16:22:59;6.30;83.30
48589;DHT22;34369;51.174;6.738;2022-12-01T16:25:34;6.50;83.00
48589;DHT22;34369;51.174;6.738;2022-12-01T16:28:22;6.30;83.00
48589;DHT22;34369;51.174;6.738;2022-12-01T16:30:55;6.40;83.30
48589;DHT22;34369;51.174;6.738;2022-12-01T16:33:29;6.40;83.00
48589;DHT22;34369;51.174;6.738;2022-12-01T16:36:06;6.40;83.10
48589;DHT22;34369;51.174;6.738;2022-12-01T16:38:38;6.30;82.80
48589;DHT22;34369;51.174;6.738;2022-12-01T16:41:15;6.40;82.70
48589;DHT22;34369;51.174;6.738;2022-12-01T16:43:48;6.30;82.60
48589;DHT22;34369;51.174;6.738;2022-12-01T16:46:21;6.30;82.70
48589;DHT22;34369;51.174;6.738;2022-12-01T16:48:54;6.20;82.80
48589;DHT22;34369;51.174;6.738;2022-12-01T16:56:33;6.30;82.40
48589;DHT22;34369;51.174;6.738;2022-12-01T17:01:38;6.20;82.10
48589;DHT22;34369;51.174;6.738;2022-12-01T17:04:11;6.10;81.80
48589;DHT22;34369;51.174;6.738;2022-12-01T17:06:43;6.20;81.90
48589;DHT22;34369;51.174;6.738;2022-12-01T17:11:48;6.10;81.80
48589;DHT22;34369;51.174;6.738;2022-12-01T17:14:20;6.10;81.80
48589;DHT22;34369;51.174;6.738;2022-12-01T17:16:52;6.00;81.80
48589;DHT22;34369;51.174;6.738;2022-12-01T17:19:25;6.10;81.80
48589;DHT22;34369;51.174;6.738;2022-12-01T17:21:57;6.10;81.80
48589;DHT22;34369;51.174;6.738;2022-12-01T17:24:29;6.00;81.30
48589;DHT22;34369;51.174;6.738;2022-12-01T17:27:02;6.00;80.90
48589;DHT22;34369;51.174;6.738;2022-12-01T17:29:34;10.90;83.60
48589;DHT22;34369;51.174;6.738;2022-12-01T17:32:15;6.10;80.90
48589;DHT22;34369;51.174;6.738;2022-12-01T17:34:49;6.00;80.90
48589;DHT22;34369;51.174;6.738;2022-12-01T17:37:21;6.00;80.80
48589;DHT22;34369;51.174;6.738;2022-12-01T17:39:54;6.10;80.90
48589;DHT22;34369;51.174;6.738;2022-12-01T17:45:00;6.00;81.00
48589;DHT22;34369;51.174;6.738;2022-12-01T17:50:08;6.00;80.70
48589;DHT22;34369;51.174;6.738;2022-12-01T17:52:40;6.00;80.90
48589;DHT22;34369;51.174;6.738;2022-12-01T17:55:12;5.90;80.70
48589;DHT22;34369;51.174;6.738;2022-12-01T18:00:17;6.00;80.90
48589;DHT22;34369;51.174;6.738;2022-12-01T18:02:51;6.00;81.10
48589;DHT22;34369;51.174;6.738;2022-12-01T18:05:27;9.40;82.80
48589;DHT22;34369;51.174;6.738;2022-12-01T18:07:59;6.00;80.90
48589;DHT22;34369;51.174;6.738;2022-12-01T18:10:32;5.90;80.90
48589;DHT22;34369;51.174;6.738;2022-12-01T18:13:04;5.90;81.00
48589;DHT22;34369;51.174;6.738;2022-12-01T18:15:37;5.90;80.80
48589;DHT22;34369;51.174;6.738;2022-12-01T18:20:44;6.00;80.60
48589;DHT22;34369;51.174;6.738;2022-12-01T18:30:53;6.00;81.00
48589;DHT22;34369;51.174;6.738;2022-12-01T18:35:58;5.90;80.40
48589;DHT22;34369;51.174;6.738;2022-12-01T18:41:03;5.90;80.30
48589;DHT22;34369;51.174;6.738;2022-12-01T18:43:36;5.90;80.30
48589;DHT22;34369;51.174;6.738;2022-12-01T18:46:10;5.90;80.40
48589;DHT22;34369;51.174;6.738;2022-12-01T18:48:43;6.00;80.70
48589;DHT22;34369;51.174;6.738;2022-12-01T18:51:18;6.00;80.90
48589;DHT22;34369;51.174;6.738;2022-12-01T18:53:52;5.90;80.90
48589;DHT22;34369;51.174;6.738;2022-12-01T18:56:25;5.90;80.90
48589;DHT22;34369;51.174;6.738;2022-12-01T18:59:00;5.80;81.00
48589;DHT22;34369;51.174;6.738;2022-12-01T19:01:38;5.90;81.00
48589;DHT22;34369;51.174;6.738;2022-12-01T19:04:12;6.00;81.40
48589;DHT22;34369;51.174;6.738;2022-12-01T19:06:46;5.90;81.50
48589;DHT22;34369;51.174;6.738;2022-12-01T19:11:50;6.00;81.80
48589;DHT22;34369;51.174;6.738;2022-12-01T19:14:29;5.90;81.80
48589;DHT22;34369;51.174;6.738;2022-12-01T19:17:01;5.90;81.90
48589;DHT22;34369;51.174;6.738;2022-12-01T19:22:07;5.90;81.50
48589;DHT22;34369;51.174;6.738;2022-12-01T19:24:39;5.90;81.60
48589;DHT22;34369;51.174;6.738;2022-12-01T19:27:11;6.00;81.60
48589;DHT22;34369;51.174;6.738;2022-12-01T19:32:15;6.00;81.50
48589;DHT22;34369;51.174;6.738;2022-12-01T19:34:48;5.90;81.50
48589;DHT22;34369;51.174;6.738;2022-12-01T19:37:21;5.90;81.50
48589;DHT22;34369;51.174;6.738;2022-12-01T19:39:53;5.90;81.60
48589;DHT22;34369;51.174;6.738;2022-12-01T19:44:59;5.90;81.70
48589;DHT22;34369;51.174;6.738;2022-12-01T19:47:32;5.70;81.30
48589;DHT22;34369;51.174;6.738;2022-12-01T19:50:05;5.80;81.30
48589;DHT22;34369;51.174;6.738;2022-12-01T19:52:39;5.80;81.50
48589;DHT22;34369;51.174;6.738;2022-12-01T19:55:12;5.80;81.50
48589;DHT22;34369;51.174;6.738;2022-12-01T19:57:48;5.80;81.60
48589;DHT22;34369;51.174;6.738;2022-12-01T20:00:20;5.80;81.60
48589;DHT22;34369;51.174;6.738;2022-12-01T20:02:55;5.70;81.60
48589;DHT22;34369;51.174;6.738;2022-12-01T20:05:31;5.80;81.80
48589;DHT22;34369;51.174;6.738;2022-12-01T20:08:05;5.80;81.70
48589;DHT22;34369;51.174;6.738;2022-12-01T20:10:44;5.60;81.50
48589;DHT22;34369;51.174;6.738;2022-12-01T20:13:18;5.70;81.20
48589;DHT22;34369;51.174;6.738;2022-12-01T20:15:51;5.70;81.40
48589;DHT22;34369;51.174;6.738;2022-12-01T20:18:24;5.70;81.30
48589;DHT22;34369;51.174;6.738;2022-12-01T20:21:04;5.70;81.40
48589;DHT22;34369;51.174;6.738;2022-12-01T20:26:28;5.50;80.40
48589;DHT22;34369;51.174;6.738;2022-12-01T20:29:05;4.40;80.00
48589;DHT22;34369;51.174;6.738;2022-12-01T20:31:39;5.50;80.50
48589;DHT22;34369;51.174;6.738;2022-12-01T20:34:16;5.50;80.30
48589;DHT22;34369;51.174;6.738;2022-12-01T20:39:23;5.40;80.30
48589;DHT22;34369;51.174;6.738;2022-12-01T20:47:02;5.30;80.20
48589;DHT22;34369;51.174;6.738;2022-12-01T20:54:40;5.10;80.10
48589;DHT22;34369;51.174;6.738;2022-12-01T21:09:58;5.10;80.40
48589;DHT22;34369;51.174;6.738;2022-12-01T21:12:31;5.00;80.50
48589;DHT22;34369;51.174;6.738;2022-12-01T21:15:25;5.10;80.70
48589;DHT22;34369;51.174;6.738;2022-12-01T21:18:02;5.00;80.60
48589;DHT22;34369;51.174;6.738;2022-12-01T21:20:36;5.10;80.60
48589;DHT22;34369;51.174;6.738;2022-12-01T21:23:11;5.10;80.80
48589;DHT22;34369;51.174;6.738;2022-12-01T21:25:47;5.00;80.80
48589;DHT22;34369;51.174;6.738;2022-12-01T21:28:21;5.00;81.30
48589;DHT22;34369;51.174;6.738;2022-12-01T21:30:58;5.00;81.00
48589;DHT22;34369;51.174;6.738;2022-12-01T21:33:34;5.00;80.90
48589;DHT22;34369;51.174;6.738;2022-12-01T21:36:13;5.00;80.70
48589;DHT22;34369;51.174;6.738;2022-12-01T21:38:49;5.00;80.60
48589;DHT22;34369;51.174;6.738;2022-12-01T21:41:26;5.00;80.90
48589;DHT22;34369;51.174;6.738;2022-12-01T21:44:03;4.90;80.70
48589;DHT22;34369;51.174;6.738;2022-12-01T21:49:16;5.00;80.90
48589;DHT22;34369;51.174;6.738;2022-12-01T21:51:51;5.00;80.90
48589;DHT22;34369;51.174;6.738;2022-12-01T21:54:24;4.90;81.00